Private Wetterstation Sandau
Wetterdaten: Mittwoch, 02.05.2012
Datum Zeit Temp. A. Feuchte A. Luftdruck Regen Wind Richtung Richtung Taupunkt Windchill
02.05.2012 00:01 14,6 C 61 % 1018,0 hPa 0,0 l/m 3,6 km/h (1 Bft) N-NO 22 7,2 C 14,6 C
02.05.2012 00:06 14,5 C 61 % 1018,0 hPa 0,0 l/m 4,0 km/h (1 Bft) NO 45 7,1 C 14,5 C
02.05.2012 00:11 14,3 C 61 % 1018,0 hPa 0,0 l/m 2,5 km/h (1 Bft) N-NO 22 6,9 C 14,3 C
02.05.2012 00:16 14,2 C 61 % 1018,0 hPa 0,0 l/m 4,7 km/h (1 Bft) N-NO 22 6,8 C 14,2 C
02.05.2012 00:21 14,1 C 61 % 1018,1 hPa 0,0 l/m 3,2 km/h (1 Bft) N 360 6,7 C 14,1 C
02.05.2012 00:26 14,0 C 61 % 1017,9 hPa 0,0 l/m 4,0 km/h (1 Bft) N 360 6,6 C 14,0 C
02.05.2012 00:31 13,9 C 62 % 1017,9 hPa 0,0 l/m 3,2 km/h (1 Bft) N-NO 22 6,7 C 13,9 C
02.05.2012 00:36 13,9 C 62 % 1018,0 hPa 0,0 l/m 2,9 km/h (1 Bft) N-NO 22 6,7 C 13,9 C
02.05.2012 00:41 13,8 C 62 % 1018,0 hPa 0,0 l/m 1,4 km/h (1 Bft) N-NO 22 6,6 C 13,8 C
02.05.2012 00:46 13,7 C 62 % 1018,1 hPa 0,0 l/m 2,5 km/h (1 Bft) NO 45 6,6 C 13,7 C
02.05.2012 00:51 13,6 C 62 % 1018,0 hPa 0,0 l/m 0,0 km/h (0 Bft) O-NO 67 6,5 C 13,6 C
02.05.2012 00:56 13,5 C 63 % 1018,1 hPa 0,0 l/m 4,0 km/h (1 Bft) N 360 6,6 C 13,5 C
02.05.2012 01:01 13,5 C 63 % 1018,1 hPa 0,0 l/m 0,0 km/h (0 Bft) N-NO 22 6,6 C 13,5 C
02.05.2012 01:06 13,5 C 63 % 1018,1 hPa 0,0 l/m 0,0 km/h (0 Bft) NO 45 6,6 C 13,5 C
02.05.2012 01:11 13,5 C 63 % 1018,1 hPa 0,0 l/m 1,8 km/h (1 Bft) N-NO 22 6,6 C 13,5 C
02.05.2012 01:16 13,3 C 63 % 1018,1 hPa 0,0 l/m 0,0 km/h (0 Bft) NO 45 6,4 C 13,3 C
02.05.2012 01:21 13,3 C 63 % 1018,2 hPa 0,0 l/m 0,0 km/h (0 Bft) N 360 6,4 C 13,3 C
02.05.2012 01:26 13,3 C 64 % 1018,2 hPa 0,0 l/m 1,4 km/h (1 Bft) NO 45 6,6 C 13,3 C
02.05.2012 01:31 13,0 C 65 % 1018,2 hPa 0,0 l/m 2,5 km/h (1 Bft) NO 45 6,6 C 13,0 C
02.05.2012 01:36 12,9 C 66 % 1018,2 hPa 0,0 l/m 1,4 km/h (1 Bft) N-NO 22 6,7 C 12,9 C
02.05.2012 01:41 12,8 C 66 % 1018,2 hPa 0,0 l/m 2,5 km/h (1 Bft) N-NO 22 6,6 C 12,8 C
02.05.2012 01:46 12,6 C 66 % 1018,3 hPa 0,0 l/m 2,5 km/h (1 Bft) N 360 6,4 C 12,6 C
02.05.2012 01:51 12,5 C 66 % 1018,3 hPa 0,0 l/m 0,0 km/h (0 Bft) NO 45 6,3 C 12,5 C
02.05.2012 01:56 12,5 C 66 % 1018,3 hPa 0,0 l/m 1,8 km/h (1 Bft) NO 45 6,3 C 12,5 C
02.05.2012 02:01 12,4 C 66 % 1018,3 hPa 0,0 l/m 0,0 km/h (0 Bft) NO 45 6,2 C 12,4 C
02.05.2012 02:06 12,4 C 67 % 1018,3 hPa 0,0 l/m 0,0 km/h (0 Bft) NO 45 6,4 C 12,4 C
02.05.2012 02:11 12,4 C 67 % 1018,3 hPa 0,0 l/m 0,0 km/h (0 Bft) N-NO 22 6,4 C 12,4 C
02.05.2012 02:16 12,4 C 66 % 1018,2 hPa 0,0 l/m 0,0 km/h (0 Bft) NO 45 6,2 C 12,4 C
02.05.2012 02:21 12,4 C 66 % 1018,2 hPa 0,0 l/m 2,2 km/h (1 Bft) NO 45 6,2 C 12,4 C
02.05.2012 02:26 12,3 C 67 % 1017,9 hPa 0,0 l/m 3,2 km/h (1 Bft) N-NO 22 6,4 C 12,3 C
02.05.2012 02:31 12,2 C 67 % 1018,0 hPa 0,0 l/m 0,0 km/h (0 Bft) NO 45 6,3 C 12,2 C
02.05.2012 02:36 12,1 C 67 % 1018,0 hPa 0,0 l/m 0,0 km/h (0 Bft) N 360 6,2 C 12,1 C
02.05.2012 02:41 12,1 C 68 % 1017,9 hPa 0,0 l/m 0,0 km/h (0 Bft) N 360 6,4 C 12,1 C
02.05.2012 02:46 12,1 C 67 % 1018,0 hPa 0,0 l/m 2,5 km/h (1 Bft) N 360 6,2 C 12,1 C
02.05.2012 02:51 12,1 C 68 % 1017,9 hPa 0,0 l/m 1,8 km/h (1 Bft) NO 45 6,4 C 12,1 C
02.05.2012 02:56 12,0 C 68 % 1018,0 hPa 0,0 l/m 3,2 km/h (1 Bft) N 360 6,3 C 12,0 C
02.05.2012 03:01 11,9 C 68 % 1018,0 hPa 0,0 l/m 3,6 km/h (1 Bft) N 360 6,2 C 11,9 C
02.05.2012 03:06 11,9 C 68 % 1018,0 hPa 0,0 l/m 4,0 km/h (1 Bft) NO 45 6,2 C 11,9 C
02.05.2012 03:11 11,9 C 68 % 1018,0 hPa 0,0 l/m 3,2 km/h (1 Bft) NO 45 6,2 C 11,9 C
02.05.2012 03:16 11,9 C 68 % 1017,9 hPa 0,0 l/m 4,7 km/h (1 Bft) N-NO 22 6,2 C 11,9 C
02.05.2012 03:21 11,8 C 68 % 1017,8 hPa 0,0 l/m 3,2 km/h (1 Bft) NO 45 6,1 C 11,8 C
02.05.2012 03:26 11,8 C 68 % 1017,8 hPa 0,0 l/m 2,2 km/h (1 Bft) O 90 6,1 C 11,8 C
02.05.2012 03:31 11,9 C 68 % 1017,8 hPa 0,0 l/m 2,9 km/h (1 Bft) NO 45 6,2 C 11,9 C
02.05.2012 03:36 11,9 C 68 % 1017,7 hPa 0,0 l/m 2,9 km/h (1 Bft) O-NO 67 6,2 C 11,9 C
02.05.2012 03:41 11,9 C 68 % 1017,8 hPa 0,0 l/m 6,1 km/h (2 Bft) O 90 6,2 C 11,9 C
02.05.2012 03:46 11,9 C 69 % 1017,7 hPa 0,0 l/m 4,3 km/h (1 Bft) O-NO 67 6,4 C 11,9 C
02.05.2012 03:51 11,8 C 69 % 1017,7 hPa 0,0 l/m 4,3 km/h (1 Bft) N-NO 22 6,3 C 11,8 C
02.05.2012 03:56 11,8 C 69 % 1017,7 hPa 0,0 l/m 3,6 km/h (1 Bft) O-NO 67 6,3 C 11,8 C
02.05.2012 04:01 11,6 C 69 % 1017,6 hPa 0,0 l/m 3,6 km/h (1 Bft) O-NO 67 6,1 C 11,6 C
02.05.2012 04:06 11,6 C 69 % 1017,6 hPa 0,0 l/m 0,0 km/h (0 Bft) O 90 6,1 C 11,6 C
02.05.2012 04:11 11,6 C 69 % 1017,7 hPa 0,0 l/m 2,2 km/h (1 Bft) NO 45 6,1 C 11,6 C
02.05.2012 04:16 11,6 C 69 % 1017,6 hPa 0,0 l/m 2,9 km/h (1 Bft) O-SO 112 6,1 C 11,6 C
02.05.2012 04:21 11,5 C 69 % 1017,7 hPa 0,0 l/m 0,0 km/h (0 Bft) NO 45 6,0 C 11,5 C
02.05.2012 04:26 11,5 C 69 % 1017,7 hPa 0,0 l/m 0,0 km/h (0 Bft) O-NO 67 6,0 C 11,5 C
02.05.2012 04:31 11,5 C 69 % 1017,6 hPa 0,0 l/m 1,8 km/h (1 Bft) NO 45 6,0 C 11,5 C
02.05.2012 04:36 11,4 C 69 % 1017,8 hPa 0,0 l/m 0,0 km/h (0 Bft) N-NO 22 5,9 C 11,4 C
02.05.2012 04:41 11,4 C 69 % 1017,6 hPa 0,0 l/m 3,2 km/h (1 Bft) N-NO 22 5,9 C 11,4 C
02.05.2012 04:46 11,3 C 70 % 1017,6 hPa 0,0 l/m 1,8 km/h (1 Bft) NO 45 6,0 C 11,3 C
02.05.2012 04:51 11,3 C 70 % 1017,5 hPa 0,0 l/m 1,8 km/h (1 Bft) NO 45 6,0 C 11,3 C
02.05.2012 04:56 11,1 C 70 % 1017,6 hPa 0,0 l/m 3,6 km/h (1 Bft) N-NO 22 5,8 C 11,1 C
02.05.2012 05:01 11,1 C 70 % 1017,4 hPa 0,0 l/m 1,4 km/h (1 Bft) NO 45 5,8 C 11,1 C
02.05.2012 05:06 11,0 C 71 % 1017,4 hPa 0,0 l/m 3,2 km/h (1 Bft) NO 45 5,9 C 11,0 C
02.05.2012 05:11 11,0 C 71 % 1017,3 hPa 0,0 l/m 4,7 km/h (1 Bft) NO 45 5,9 C 11,0 C
02.05.2012 05:16 11,1 C 71 % 1017,2 hPa 0,0 l/m 1,8 km/h (1 Bft) NO 45 6,0 C 11,1 C
02.05.2012 05:21 11,1 C 71 % 1017,2 hPa 0,0 l/m 3,6 km/h (1 Bft) N-NO 22 6,0 C 11,1 C
02.05.2012 05:26 11,1 C 71 % 1017,4 hPa 0,0 l/m 2,5 km/h (1 Bft) O-NO 67 6,0 C 11,1 C
02.05.2012 05:31 11,1 C 71 % 1017,3 hPa 0,0 l/m 4,0 km/h (1 Bft) O-NO 67 6,0 C 11,1 C
02.05.2012 05:36 11,1 C 72 % 1017,3 hPa 0,0 l/m 0,0 km/h (0 Bft) N-NO 22 6,2 C 11,1 C
02.05.2012 05:41 11,0 C 72 % 1017,3 hPa 0,0 l/m 3,6 km/h (1 Bft) NO 45 6,2 C 11,0 C
02.05.2012 05:46 10,9 C 72 % 1017,2 hPa 0,0 l/m 5,0 km/h (1 Bft) N-NO 22 6,1 C 10,9 C
02.05.2012 05:51 10,9 C 72 % 1017,3 hPa 0,0 l/m 5,8 km/h (2 Bft) NO 45 6,1 C 10,9 C
02.05.2012 05:56 10,9 C 72 % 1017,2 hPa 0,0 l/m 4,7 km/h (1 Bft) O 90 6,1 C 10,9 C
02.05.2012 06:01 10,9 C 72 % 1017,3 hPa 0,0 l/m 5,0 km/h (1 Bft) O-SO 112 6,1 C 10,9 C
02.05.2012 06:06 10,9 C 72 % 1017,2 hPa 0,0 l/m 3,6 km/h (1 Bft) N-NO 22 6,1 C 10,9 C
02.05.2012 06:11 10,9 C 72 % 1017,2 hPa 0,0 l/m 0,0 km/h (0 Bft) NO 45 6,1 C 10,9 C
02.05.2012 06:16 10,9 C 72 % 1017,3 hPa 0,0 l/m 0,0 km/h (0 Bft) N-NO 22 6,1 C 10,9 C
02.05.2012 06:21 10,9 C 73 % 1017,2 hPa 0,0 l/m 1,1 km/h (1 Bft) N-NO 22 6,3 C 10,9 C
02.05.2012 06:26 10,9 C 72 % 1017,2 hPa 0,0 l/m 2,9 km/h (1 Bft) NO 45 6,1 C 10,9 C
02.05.2012 06:31 11,0 C 73 % 1017,1 hPa 0,0 l/m 8,6 km/h (2 Bft) O-SO 112 6,4 C 11,0 C
02.05.2012 06:36 11,1 C 73 % 1017,1 hPa 0,0 l/m 2,2 km/h (1 Bft) O-NO 67 6,4 C 11,1 C
02.05.2012 06:41 11,3 C 73 % 1017,2 hPa 0,0 l/m 5,8 km/h (2 Bft) O-SO 112 6,6 C 11,3 C
02.05.2012 06:46 11,4 C 73 % 1017,2 hPa 0,0 l/m 6,1 km/h (2 Bft) O-NO 67 6,7 C 11,4 C
02.05.2012 06:51 11,5 C 72 % 1017,3 hPa 0,0 l/m 2,5 km/h (1 Bft) O-NO 67 6,6 C 11,5 C
02.05.2012 06:56 11,6 C 72 % 1017,4 hPa 0,0 l/m 6,5 km/h (2 Bft) O-NO 67 6,7 C 11,6 C
02.05.2012 07:01 11,8 C 71 % 1017,3 hPa 0,0 l/m 1,1 km/h (1 Bft) O 90 6,7 C 11,8 C
02.05.2012 07:06 11,9 C 71 % 1017,4 hPa 0,0 l/m 1,4 km/h (1 Bft) O-NO 67 6,8 C 11,9 C
02.05.2012 07:11 12,0 C 71 % 1017,2 hPa 0,0 l/m 8,3 km/h (2 Bft) O-NO 67 6,9 C 12,0 C
02.05.2012 07:16 12,1 C 71 % 1017,1 hPa 0,0 l/m 4,3 km/h (1 Bft) NO 45 7,0 C 12,1 C
02.05.2012 07:21 12,1 C 70 % 1017,3 hPa 0,0 l/m 4,0 km/h (1 Bft) N-NO 22 6,8 C 12,1 C
02.05.2012 07:26 12,2 C 70 % 1017,3 hPa 0,0 l/m 5,0 km/h (1 Bft) O-NO 67 6,9 C 12,2 C
02.05.2012 07:31 12,4 C 70 % 1017,4 hPa 0,0 l/m 4,0 km/h (1 Bft) O 90 7,1 C 12,4 C
02.05.2012 07:36 12,5 C 70 % 1017,3 hPa 0,0 l/m 3,6 km/h (1 Bft) NO 45 7,2 C 12,5 C
02.05.2012 07:41 12,8 C 69 % 1017,2 hPa 0,0 l/m 4,3 km/h (1 Bft) O-NO 67 7,3 C 12,8 C
02.05.2012 07:46 12,9 C 69 % 1017,3 hPa 0,0 l/m 5,0 km/h (1 Bft) O-NO 67 7,4 C 12,9 C
02.05.2012 07:51 12,9 C 69 % 1017,2 hPa 0,0 l/m 2,9 km/h (1 Bft) N-NO 22 7,4 C 12,9 C
02.05.2012 07:56 13,1 C 69 % 1017,2 hPa 0,0 l/m 4,7 km/h (1 Bft) NO 45 7,5 C 13,1 C
02.05.2012 08:01 13,3 C 69 % 1017,3 hPa 0,0 l/m 4,3 km/h (1 Bft) O-SO 112 7,7 C 13,3 C
02.05.2012 08:06 13,5 C 68 % 1017,1 hPa 0,0 l/m 6,1 km/h (2 Bft) O-NO 67 7,7 C 13,5 C
02.05.2012 08:11 13,8 C 68 % 1017,1 hPa 0,0 l/m 5,8 km/h (2 Bft) O-NO 67 8,0 C 13,8 C
02.05.2012 08:16 13,9 C 67 % 1017,0 hPa 0,0 l/m 10,4 km/h (2 Bft) O 90 7,9 C 13,9 C
02.05.2012 08:21 14,0 C 67 % 1016,9 hPa 0,0 l/m 9,4 km/h (2 Bft) O-NO 67 8,0 C 14,0 C
02.05.2012 08:26 14,1 C 67 % 1016,9 hPa 0,0 l/m 9,0 km/h (2 Bft) NO 45 8,1 C 14,1 C
02.05.2012 08:31 14,2 C 67 % 1017,0 hPa 0,0 l/m 5,8 km/h (2 Bft) NO 45 8,2 C 14,2 C
02.05.2012 08:36 14,3 C 67 % 1016,8 hPa 0,0 l/m 5,0 km/h (1 Bft) O 90 8,3 C 14,3 C
02.05.2012 08:41 14,4 C 67 % 1016,8 hPa 0,0 l/m 9,4 km/h (2 Bft) O-NO 67 8,4 C 14,4 C
02.05.2012 08:46 14,6 C 66 % 1016,8 hPa 0,0 l/m 7,6 km/h (2 Bft) O-NO 67 8,3 C 14,6 C
02.05.2012 08:51 14,9 C 66 % 1016,8 hPa 0,0 l/m 4,3 km/h (1 Bft) NO 45 8,6 C 14,9 C
02.05.2012 08:56 15,1 C 65 % 1016,8 hPa 0,0 l/m 8,3 km/h (2 Bft) O-NO 67 8,6 C 15,1 C
02.05.2012 09:01 15,3 C 65 % 1016,8 hPa 0,0 l/m 4,0 km/h (1 Bft) O-NO 67 8,8 C 15,3 C
02.05.2012 09:06 15,5 C 65 % 1017,0 hPa 0,0 l/m 3,2 km/h (1 Bft) O-NO 67 8,9 C 15,5 C
02.05.2012 09:11 15,9 C 65 % 1016,9 hPa 0,0 l/m 0,0 km/h (0 Bft) NO 45 9,3 C 15,9 C
02.05.2012 09:16 16,2 C 64 % 1017,0 hPa 0,0 l/m 10,1 km/h (2 Bft) O 90 9,4 C 16,2 C
02.05.2012 09:21 16,3 C 63 % 1016,9 hPa 0,0 l/m 6,1 km/h (2 Bft) O-SO 112 9,2 C 16,3 C
02.05.2012 09:26 16,4 C 63 % 1016,9 hPa 0,0 l/m 7,9 km/h (2 Bft) N-NO 22 9,3 C 16,4 C
02.05.2012 09:31 16,6 C 63 % 1016,8 hPa 0,0 l/m 9,7 km/h (2 Bft) O-NO 67 9,5 C 16,6 C
02.05.2012 09:36 16,8 C 63 % 1016,9 hPa 0,0 l/m 5,8 km/h (2 Bft) SO 135 9,7 C 16,8 C
02.05.2012 09:41 17,1 C 62 % 1017,0 hPa 0,0 l/m 4,0 km/h (1 Bft) O-SO 112 9,8 C 17,1 C
02.05.2012 09:46 17,3 C 62 % 1017,0 hPa 0,0 l/m 7,2 km/h (2 Bft) O 90 9,9 C 17,3 C
02.05.2012 09:51 17,5 C 62 % 1017,1 hPa 0,0 l/m 8,6 km/h (2 Bft) O-NO 67 10,1 C 17,5 C
02.05.2012 09:56 17,8 C 61 % 1017,0 hPa 0,0 l/m 5,4 km/h (1 Bft) O-NO 67 10,2 C 17,8 C
02.05.2012 10:01 17,9 C 60 % 1017,2 hPa 0,0 l/m 6,1 km/h (2 Bft) O 90 10,0 C 17,9 C
02.05.2012 10:06 18,1 C 60 % 1017,1 hPa 0,0 l/m 6,1 km/h (2 Bft) O 90 10,2 C 18,1 C
02.05.2012 10:11 18,4 C 60 % 1017,2 hPa 0,0 l/m 5,8 km/h (2 Bft) O-NO 67 10,5 C 18,4 C
02.05.2012 10:16 18,6 C 59 % 1017,2 hPa 0,0 l/m 4,7 km/h (1 Bft) NO 45 10,4 C 18,6 C
02.05.2012 10:21 18,6 C 59 % 1017,1 hPa 0,0 l/m 4,7 km/h (1 Bft) NO 45 10,4 C 18,6 C
02.05.2012 10:26 18,9 C 59 % 1017,0 hPa 0,0 l/m 3,2 km/h (1 Bft) O 90 10,7 C 18,9 C
02.05.2012 10:31 19,1 C 58 % 1017,1 hPa 0,0 l/m 10,4 km/h (2 Bft) N-NO 22 10,6 C 19,1 C
02.05.2012 10:36 19,0 C 58 % 1017,0 hPa 0,0 l/m 5,0 km/h (1 Bft) O 90 10,5 C 19,0 C
02.05.2012 10:41 19,1 C 58 % 1016,9 hPa 0,0 l/m 6,5 km/h (2 Bft) NO 45 10,6 C 19,1 C
02.05.2012 10:46 19,4 C 58 % 1016,9 hPa 0,0 l/m 6,5 km/h (2 Bft) O-NO 67 10,9 C 19,4 C
02.05.2012 10:51 19,5 C 57 % 1016,8 hPa 0,0 l/m 8,3 km/h (2 Bft) N-NO 22 10,8 C 19,5 C
02.05.2012 10:56 19,7 C 57 % 1016,8 hPa 0,0 l/m 5,8 km/h (2 Bft) O 90 10,9 C 19,7 C
02.05.2012 11:01 19,8 C 56 % 1016,7 hPa 0,0 l/m 14,4 km/h (3 Bft) N-NO 22 10,8 C 19,8 C
02.05.2012 11:06 19,9 C 57 % 1016,5 hPa 0,0 l/m 11,2 km/h (2 Bft) O 90 11,1 C 19,9 C
02.05.2012 11:11 20,1 C 56 % 1016,4 hPa 0,0 l/m 13,0 km/h (3 Bft) N-NO 22 11,0 C 20,1 C
02.05.2012 11:16 20,3 C 55 % 1016,4 hPa 0,0 l/m 11,2 km/h (2 Bft) O-NO 67 11,0 C 20,3 C
02.05.2012 11:21 20,4 C 56 % 1016,3 hPa 0,0 l/m 11,2 km/h (2 Bft) O 90 11,3 C 20,4 C
02.05.2012 11:26 20,5 C 55 % 1016,3 hPa 0,0 l/m 5,4 km/h (1 Bft) O 90 11,1 C 20,5 C
02.05.2012 11:31 20,7 C 55 % 1016,3 hPa 0,0 l/m 7,6 km/h (2 Bft) O-NO 67 11,3 C 20,7 C
02.05.2012 11:36 20,9 C 55 % 1016,2 hPa 0,0 l/m 9,7 km/h (2 Bft) O-SO 112 11,5 C 20,9 C
02.05.2012 11:41 21,1 C 55 % 1016,1 hPa 0,0 l/m 6,1 km/h (2 Bft) O-NO 67 11,7 C 21,1 C
02.05.2012 11:46 21,3 C 54 % 1016,3 hPa 0,0 l/m 11,9 km/h (2 Bft) O-SO 112 11,6 C 21,3 C
02.05.2012 11:51 21,3 C 54 % 1016,1 hPa 0,0 l/m 5,4 km/h (1 Bft) O-NO 67 11,6 C 21,3 C
02.05.2012 11:56 21,5 C 54 % 1016,0 hPa 0,0 l/m 7,6 km/h (2 Bft) O 90 11,8 C 21,5 C
02.05.2012 12:01 21,6 C 53 % 1016,0 hPa 0,0 l/m 10,1 km/h (2 Bft) NO 45 11,6 C 21,6 C
02.05.2012 12:06 21,8 C 53 % 1016,0 hPa 0,0 l/m 5,8 km/h (2 Bft) O-NO 67 11,8 C 21,8 C
02.05.2012 12:11 21,9 C 53 % 1015,8 hPa 0,0 l/m 4,7 km/h (1 Bft) O-SO 112 11,9 C 21,9 C
02.05.2012 12:16 22,1 C 52 % 1015,7 hPa 0,0 l/m 3,2 km/h (1 Bft) O-NO 67 11,8 C 22,1 C
02.05.2012 12:21 22,4 C 53 % 1015,7 hPa 0,0 l/m 4,3 km/h (1 Bft) O-NO 67 12,3 C 22,4 C
02.05.2012 12:26 22,8 C 52 % 1015,6 hPa 0,0 l/m 15,8 km/h (3 Bft) O-SO 112 12,4 C 22,8 C
02.05.2012 12:31 22,9 C 51 % 1015,6 hPa 0,0 l/m 8,3 km/h (2 Bft) NO 45 12,2 C 22,9 C
02.05.2012 12:36 22,9 C 51 % 1015,5 hPa 0,0 l/m 7,6 km/h (2 Bft) NO 45 12,2 C 22,9 C
02.05.2012 12:41 23,2 C 50 % 1015,4 hPa 0,0 l/m 10,8 km/h (2 Bft) O 90 12,2 C 23,2 C
02.05.2012 12:46 23,4 C 50 % 1015,3 hPa 0,0 l/m 6,8 km/h (2 Bft) N-NO 22 12,4 C 23,4 C
02.05.2012 12:51 23,4 C 50 % 1015,4 hPa 0,0 l/m 13,3 km/h (3 Bft) SO 135 12,4 C 23,4 C
02.05.2012 12:56 23,6 C 50 % 1015,1 hPa 0,0 l/m 2,9 km/h (1 Bft) O-NO 67 12,6 C 23,6 C
02.05.2012 13:01 23,8 C 49 % 1015,2 hPa 0,0 l/m 10,1 km/h (2 Bft) O-NO 67 12,4 C 23,8 C
02.05.2012 13:06 23,9 C 49 % 1015,1 hPa 0,0 l/m 11,2 km/h (2 Bft) O-NO 67 12,5 C 23,9 C
02.05.2012 13:11 24,1 C 49 % 1015,0 hPa 0,0 l/m 6,5 km/h (2 Bft) O-NO 67 12,7 C 24,1 C
02.05.2012 13:16 24,4 C 48 % 1015,0 hPa 0,0 l/m 12,6 km/h (3 Bft) O 90 12,7 C 24,4 C
02.05.2012 13:21 24,5 C 47 % 1015,0 hPa 0,0 l/m 5,8 km/h (2 Bft) O-NO 67 12,4 C 24,5 C
02.05.2012 13:26 24,6 C 47 % 1015,0 hPa 0,0 l/m 7,2 km/h (2 Bft) N 360 12,5 C 24,6 C
02.05.2012 13:31 24,7 C 46 % 1015,0 hPa 0,0 l/m 7,2 km/h (2 Bft) O-NO 67 12,3 C 24,7 C
02.05.2012 13:36 24,8 C 46 % 1014,9 hPa 0,0 l/m 4,7 km/h (1 Bft) O-SO 112 12,4 C 24,8 C
02.05.2012 13:41 24,8 C 46 % 1014,8 hPa 0,0 l/m 12,2 km/h (2 Bft) O 90 12,4 C 24,8 C
02.05.2012 13:46 24,9 C 46 % 1014,7 hPa 0,0 l/m 16,2 km/h (3 Bft) SO 135 12,5 C 24,9 C
02.05.2012 13:51 24,9 C 46 % 1014,6 hPa 0,0 l/m 10,8 km/h (2 Bft) O-SO 112 12,5 C 24,9 C
02.05.2012 13:56 25,2 C 45 % 1014,5 hPa 0,0 l/m 9,7 km/h (2 Bft) N-NO 22 12,4 C 25,2 C
02.05.2012 14:01 25,3 C 45 % 1014,5 hPa 0,0 l/m 10,1 km/h (2 Bft) O-NO 67 12,5 C 25,3 C
02.05.2012 14:06 25,3 C 44 % 1014,3 hPa 0,0 l/m 19,1 km/h (3 Bft) O 90 12,2 C 25,3 C
02.05.2012 14:11 25,3 C 44 % 1014,6 hPa 0,0 l/m 14,0 km/h (3 Bft) N-NO 22 12,2 C 25,3 C
02.05.2012 14:16 25,4 C 44 % 1014,5 hPa 0,0 l/m 14,0 km/h (3 Bft) O-SO 112 12,2 C 25,4 C
02.05.2012 14:21 25,5 C 43 % 1014,5 hPa 0,0 l/m 13,7 km/h (3 Bft) O-NO 67 12,0 C 25,5 C
02.05.2012 14:26 25,5 C 42 % 1014,5 hPa 0,0 l/m 20,2 km/h (4 Bft) O-NO 67 11,6 C 25,5 C
02.05.2012 14:31 25,6 C 43 % 1014,3 hPa 0,0 l/m 13,7 km/h (3 Bft) O-SO 112 12,1 C 25,6 C
02.05.2012 14:36 25,8 C 42 % 1014,2 hPa 0,0 l/m 19,1 km/h (3 Bft) O 90 11,9 C 25,8 C
02.05.2012 14:41 25,8 C 42 % 1014,2 hPa 0,0 l/m 19,4 km/h (3 Bft) O-SO 112 11,9 C 25,8 C
02.05.2012 14:46 25,8 C 42 % 1014,1 hPa 0,0 l/m 8,6 km/h (2 Bft) O-SO 112 11,9 C 25,8 C
02.05.2012 14:51 25,9 C 42 % 1014,1 hPa 0,0 l/m 14,4 km/h (3 Bft) O-SO 112 12,0 C 25,9 C
02.05.2012 14:56 26,1 C 41 % 1014,1 hPa 0,0 l/m 9,0 km/h (2 Bft) O-SO 112 11,8 C 26,1 C
02.05.2012 15:01 26,2 C 42 % 1014,0 hPa 0,0 l/m 6,5 km/h (2 Bft) O 90 12,3 C 26,2 C
02.05.2012 15:06 26,5 C 42 % 1013,9 hPa 0,0 l/m 9,0 km/h (2 Bft) O 90 12,5 C 26,5 C
02.05.2012 15:11 26,6 C 40 % 1013,9 hPa 0,0 l/m 7,9 km/h (2 Bft) O 90 11,9 C 26,6 C
02.05.2012 15:16 26,6 C 40 % 1013,8 hPa 0,0 l/m 11,9 km/h (2 Bft) NO 45 11,9 C 26,6 C
02.05.2012 15:21 26,5 C 40 % 1013,8 hPa 0,0 l/m 15,5 km/h (3 Bft) O-SO 112 11,8 C 26,5 C
02.05.2012 15:26 26,4 C 40 % 1013,8 hPa 0,0 l/m 25,2 km/h (4 Bft) N-NO 22 11,7 C 26,4 C
02.05.2012 15:31 26,4 C 40 % 1013,7 hPa 0,0 l/m 21,2 km/h (4 Bft) O 90 11,7 C 26,4 C
02.05.2012 15:36 26,4 C 40 % 1013,7 hPa 0,0 l/m 4,0 km/h (1 Bft) O 90 11,7 C 26,4 C
02.05.2012 15:41 26,5 C 40 % 1013,7 hPa 0,0 l/m 16,6 km/h (3 Bft) O-NO 67 11,8 C 26,5 C
02.05.2012 15:46 26,4 C 40 % 1013,6 hPa 0,0 l/m 12,6 km/h (3 Bft) O-NO 67 11,7 C 26,4 C
02.05.2012 15:51 26,5 C 41 % 1013,4 hPa 0,0 l/m 20,5 km/h (4 Bft) O-NO 67 12,2 C 26,5 C
02.05.2012 15:56 26,6 C 40 % 1013,4 hPa 0,0 l/m 4,7 km/h (1 Bft) SO 135 11,9 C 26,6 C
02.05.2012 16:01 26,6 C 40 % 1013,4 hPa 0,0 l/m 10,4 km/h (2 Bft) O 90 11,9 C 26,6 C
02.05.2012 16:06 26,6 C 40 % 1013,4 hPa 0,0 l/m 13,0 km/h (3 Bft) O-SO 112 11,9 C 26,6 C
02.05.2012 16:11 26,6 C 39 % 1013,3 hPa 0,0 l/m 9,4 km/h (2 Bft) O 90 11,5 C 26,6 C
02.05.2012 16:16 26,6 C 39 % 1013,3 hPa 0,0 l/m 15,8 km/h (3 Bft) O-NO 67 11,5 C 26,6 C
02.05.2012 16:21 26,7 C 40 % 1013,2 hPa 0,0 l/m 10,1 km/h (2 Bft) SO 135 12,0 C 26,7 C
02.05.2012 16:26 26,8 C 41 % 1013,1 hPa 0,0 l/m 10,1 km/h (2 Bft) O 90 12,4 C 26,8 C
02.05.2012 16:31 26,8 C 40 % 1013,1 hPa 0,0 l/m 6,5 km/h (2 Bft) O-NO 67 12,1 C 26,8 C
02.05.2012 16:36 26,8 C 41 % 1013,0 hPa 0,0 l/m 9,4 km/h (2 Bft) O-SO 112 12,4 C 26,8 C
02.05.2012 16:41 26,8 C 41 % 1013,0 hPa 0,0 l/m 5,8 km/h (2 Bft) S-SO 157 12,4 C 26,8 C
02.05.2012 16:46 26,8 C 41 % 1013,0 hPa 0,0 l/m 6,1 km/h (2 Bft) NO 45 12,4 C 26,8 C
02.05.2012 16:51 26,6 C 41 % 1013,1 hPa 0,0 l/m 18,4 km/h (3 Bft) O-NO 67 12,2 C 26,6 C
02.05.2012 16:56 26,6 C 41 % 1012,9 hPa 0,0 l/m 11,2 km/h (2 Bft) O-NO 67 12,2 C 26,6 C
02.05.2012 17:01 26,6 C 41 % 1012,8 hPa 0,0 l/m 7,9 km/h (2 Bft) O-NO 67 12,2 C 26,6 C
02.05.2012 17:06 26,6 C 42 % 1012,7 hPa 0,0 l/m 5,4 km/h (1 Bft) O-NO 67 12,6 C 26,6 C
02.05.2012 17:11 26,4 C 41 % 1012,7 hPa 0,0 l/m 16,9 km/h (3 Bft) O 90 12,1 C 26,4 C
02.05.2012 17:16 26,3 C 41 % 1012,7 hPa 0,0 l/m 15,5 km/h (3 Bft) NO 45 12,0 C 26,3 C
02.05.2012 17:21 26,2 C 41 % 1012,7 hPa 0,0 l/m 6,5 km/h (2 Bft) O 90 11,9 C 26,2 C
02.05.2012 17:26 26,2 C 41 % 1012,6 hPa 0,0 l/m 12,6 km/h (3 Bft) O-SO 112 11,9 C 26,2 C
02.05.2012 17:31 26,2 C 42 % 1012,4 hPa 0,0 l/m 12,6 km/h (3 Bft) O-NO 67 12,3 C 26,2 C
02.05.2012 17:36 26,1 C 42 % 1012,5 hPa 0,0 l/m 5,0 km/h (1 Bft) NO 45 12,2 C 26,1 C
02.05.2012 17:41 26,2 C 42 % 1012,5 hPa 0,0 l/m 9,7 km/h (2 Bft) NO 45 12,3 C 26,2 C
02.05.2012 17:46 26,1 C 42 % 1012,4 hPa 0,0 l/m 7,9 km/h (2 Bft) NO 45 12,2 C 26,1 C
02.05.2012 17:51 25,9 C 43 % 1012,3 hPa 0,0 l/m 19,8 km/h (3 Bft) O-NO 67 12,3 C 25,9 C
02.05.2012 17:56 25,8 C 43 % 1012,3 hPa 0,0 l/m 11,2 km/h (2 Bft) NO 45 12,3 C 25,8 C
02.05.2012 18:01 25,6 C 43 % 1012,3 hPa 0,0 l/m 5,0 km/h (1 Bft) O 90 12,1 C 25,6 C
02.05.2012 18:06 25,5 C 44 % 1012,2 hPa 0,0 l/m 9,4 km/h (2 Bft) NO 45 12,3 C 25,5 C
02.05.2012 18:11 25,4 C 44 % 1012,2 hPa 0,0 l/m 7,2 km/h (2 Bft) O-NO 67 12,2 C 25,4 C
02.05.2012 18:16 25,2 C 45 % 1012,2 hPa 0,0 l/m 8,6 km/h (2 Bft) O-NO 67 12,4 C 25,2 C
02.05.2012 18:21 25,0 C 45 % 1012,2 hPa 0,0 l/m 13,3 km/h (3 Bft) N 360 12,2 C 25,0 C
02.05.2012 18:26 24,8 C 46 % 1012,1 hPa 0,0 l/m 8,3 km/h (2 Bft) NO 45 12,4 C 24,8 C
02.05.2012 18:31 24,8 C 46 % 1012,1 hPa 0,0 l/m 5,8 km/h (2 Bft) O 90 12,4 C 24,8 C
02.05.2012 18:36 24,6 C 46 % 1012,0 hPa 0,0 l/m 7,2 km/h (2 Bft) O-NO 67 12,2 C 24,6 C
02.05.2012 18:41 24,6 C 46 % 1012,1 hPa 0,0 l/m 12,2 km/h (2 Bft) NO 45 12,2 C 24,6 C
02.05.2012 18:46 24,4 C 46 % 1012,2 hPa 0,0 l/m 4,7 km/h (1 Bft) O-NO 67 12,0 C 24,4 C
02.05.2012 18:51 24,2 C 46 % 1012,2 hPa 0,0 l/m 8,3 km/h (2 Bft) O-SO 112 11,8 C 24,2 C
02.05.2012 18:56 24,1 C 47 % 1012,3 hPa 0,0 l/m 4,3 km/h (1 Bft) O 90 12,1 C 24,1 C
02.05.2012 19:01 23,9 C 47 % 1012,3 hPa 0,0 l/m 13,3 km/h (3 Bft) O-NO 67 11,9 C 23,9 C
02.05.2012 19:06 23,6 C 47 % 1012,2 hPa 0,0 l/m 7,6 km/h (2 Bft) O-NO 67 11,6 C 23,6 C
02.05.2012 19:11 23,3 C 47 % 1012,2 hPa 0,0 l/m 7,9 km/h (2 Bft) NO 45 11,3 C 23,3 C
02.05.2012 19:16 23,0 C 48 % 1012,3 hPa 0,0 l/m 12,2 km/h (2 Bft) O 90 11,4 C 23,0 C
02.05.2012 19:21 22,8 C 48 % 1012,4 hPa 0,0 l/m 8,6 km/h (2 Bft) O-NO 67 11,2 C 22,8 C
02.05.2012 19:26 22,5 C 48 % 1012,4 hPa 0,0 l/m 6,5 km/h (2 Bft) O-NO 67 10,9 C 22,5 C
02.05.2012 19:31 22,2 C 49 % 1012,4 hPa 0,0 l/m 9,4 km/h (2 Bft) O-SO 112 11,0 C 22,2 C
02.05.2012 19:36 21,9 C 49 % 1012,5 hPa 0,0 l/m 13,0 km/h (3 Bft) NO 45 10,7 C 21,9 C
02.05.2012 19:41 21,6 C 50 % 1012,6 hPa 0,0 l/m 6,5 km/h (2 Bft) O 90 10,7 C 21,6 C
02.05.2012 19:46 21,4 C 50 % 1012,7 hPa 0,0 l/m 7,2 km/h (2 Bft) O-NO 67 10,5 C 21,4 C
02.05.2012 19:51 21,2 C 50 % 1012,8 hPa 0,0 l/m 11,9 km/h (2 Bft) O-NO 67 10,4 C 21,2 C
02.05.2012 19:56 20,9 C 51 % 1012,8 hPa 0,0 l/m 9,4 km/h (2 Bft) S-SO 157 10,4 C 20,9 C
02.05.2012 20:01 20,8 C 51 % 1012,7 hPa 0,0 l/m 20,9 km/h (4 Bft) O 90 10,3 C 20,8 C
02.05.2012 20:06 20,4 C 51 % 1012,8 hPa 0,0 l/m 11,2 km/h (2 Bft) SO 135 9,9 C 20,4 C
02.05.2012 20:11 20,2 C 52 % 1012,8 hPa 0,0 l/m 8,6 km/h (2 Bft) O-NO 67 10,0 C 20,2 C
02.05.2012 20:16 19,9 C 53 % 1012,8 hPa 0,0 l/m 6,5 km/h (2 Bft) O 90 10,0 C 19,9 C
02.05.2012 20:21 19,8 C 53 % 1012,8 hPa 0,0 l/m 7,9 km/h (2 Bft) O-NO 67 9,9 C 19,8 C
02.05.2012 20:26 19,6 C 54 % 1012,8 hPa 0,0 l/m 9,4 km/h (2 Bft) NO 45 10,0 C 19,6 C
02.05.2012 20:31 19,5 C 54 % 1013,0 hPa 0,0 l/m 14,0 km/h (3 Bft) O 90 9,9 C 19,5 C
02.05.2012 20:36 19,3 C 54 % 1012,8 hPa 0,0 l/m 6,8 km/h (2 Bft) N-NW 337 9,8 C 19,3 C
02.05.2012 20:41 19,1 C 54 % 1012,9 hPa 0,0 l/m 14,4 km/h (3 Bft) O 90 9,6 C 19,1 C
02.05.2012 20:46 18,9 C 55 % 1013,0 hPa 0,0 l/m 4,7 km/h (1 Bft) O-SO 112 9,7 C 18,9 C
02.05.2012 20:51 18,8 C 55 % 1012,8 hPa 0,0 l/m 2,5 km/h (1 Bft) O 90 9,6 C 18,8 C
02.05.2012 20:56 18,6 C 55 % 1013,0 hPa 0,0 l/m 4,3 km/h (1 Bft) NO 45 9,4 C 18,6 C
02.05.2012 21:01 18,5 C 55 % 1013,1 hPa 0,0 l/m 8,3 km/h (2 Bft) NO 45 9,3 C 18,5 C
02.05.2012 21:06 18,4 C 55 % 1012,9 hPa 0,0 l/m 10,1 km/h (2 Bft) N-NO 22 9,2 C 18,4 C
02.05.2012 21:11 18,3 C 55 % 1013,0 hPa 0,0 l/m 7,6 km/h (2 Bft) O-NO 67 9,1 C 18,3 C
02.05.2012 21:16 18,1 C 55 % 1012,9 hPa 0,0 l/m 9,7 km/h (2 Bft) NO 45 8,9 C 18,1 C
02.05.2012 21:21 17,9 C 55 % 1012,9 hPa 0,0 l/m 5,0 km/h (1 Bft) O 90 8,7 C 17,9 C
02.05.2012 21:26 17,9 C 55 % 1013,0 hPa 0,0 l/m 8,6 km/h (2 Bft) NO 45 8,7 C 17,9 C
02.05.2012 21:31 17,7 C 55 % 1013,2 hPa 0,0 l/m 7,6 km/h (2 Bft) O 90 8,5 C 17,7 C
02.05.2012 21:36 17,6 C 55 % 1013,0 hPa 0,0 l/m 6,5 km/h (2 Bft) O-SO 112 8,5 C 17,6 C
02.05.2012 21:41 17,4 C 54 % 1013,2 hPa 0,0 l/m 14,4 km/h (3 Bft) O-NO 67 8,0 C 17,4 C
02.05.2012 21:46 17,3 C 54 % 1013,1 hPa 0,0 l/m 7,2 km/h (2 Bft) NO 45 7,9 C 17,3 C
02.05.2012 21:51 17,1 C 53 % 1012,8 hPa 0,0 l/m 6,5 km/h (2 Bft) O-NO 67 7,4 C 17,1 C
02.05.2012 21:56 17,0 C 53 % 1012,9 hPa 0,0 l/m 4,0 km/h (1 Bft) O-NO 67 7,4 C 17,0 C
02.05.2012 22:01 16,9 C 52 % 1013,1 hPa 0,0 l/m 4,7 km/h (1 Bft) O-NO 67 7,0 C 16,9 C
02.05.2012 22:06 16,8 C 52 % 1013,1 hPa 0,0 l/m 8,3 km/h (2 Bft) O 90 6,9 C 16,8 C
02.05.2012 22:11 16,7 C 52 % 1013,1 hPa 0,0 l/m 8,6 km/h (2 Bft) O-NO 67 6,8 C 16,7 C
02.05.2012 22:16 16,6 C 52 % 1013,0 hPa 0,0 l/m 9,4 km/h (2 Bft) O 90 6,7 C 16,6 C
02.05.2012 22:21 16,5 C 52 % 1013,0 hPa 0,0 l/m 7,6 km/h (2 Bft) O-NO 67 6,6 C 16,5 C
02.05.2012 22:26 16,4 C 52 % 1013,1 hPa 0,0 l/m 6,8 km/h (2 Bft) O-NO 67 6,5 C 16,4 C
02.05.2012 22:31 16,3 C 51 % 1013,1 hPa 0,0 l/m 9,4 km/h (2 Bft) O-NO 67 6,1 C 16,3 C
02.05.2012 22:36 16,2 C 51 % 1012,9 hPa 0,0 l/m 4,3 km/h (1 Bft) O 90 6,1 C 16,2 C
02.05.2012 22:41 16,1 C 51 % 1012,8 hPa 0,0 l/m 6,5 km/h (2 Bft) O-SO 112 6,0 C 16,1 C
02.05.2012 22:46 15,9 C 51 % 1012,7 hPa 0,0 l/m 5,8 km/h (2 Bft) O-SO 112 5,8 C 15,9 C
02.05.2012 22:51 15,9 C 51 % 1012,8 hPa 0,0 l/m 5,4 km/h (1 Bft) O 90 5,8 C 15,9 C
02.05.2012 22:56 15,9 C 51 % 1012,7 hPa 0,0 l/m 5,0 km/h (1 Bft) O 90 5,8 C 15,9 C
02.05.2012 23:01 15,8 C 50 % 1012,8 hPa 0,0 l/m 2,5 km/h (1 Bft) O-NO 67 5,4 C 15,8 C
02.05.2012 23:06 15,8 C 50 % 1012,9 hPa 0,0 l/m 6,1 km/h (2 Bft) O-SO 112 5,4 C 15,8 C
02.05.2012 23:11 15,8 C 50 % 1013,0 hPa 0,0 l/m 8,3 km/h (2 Bft) N-NO 22 5,4 C 15,8 C
02.05.2012 23:16 15,7 C 50 % 1013,4 hPa 0,0 l/m 6,1 km/h (2 Bft) O-SO 112 5,3 C 15,7 C
02.05.2012 23:21 15,7 C 50 % 1013,1 hPa 0,0 l/m 5,0 km/h (1 Bft) O 90 5,3 C 15,7 C
02.05.2012 23:26 15,6 C 50 % 1013,4 hPa 0,0 l/m 4,0 km/h (1 Bft) NO 45 5,2 C 15,6 C
02.05.2012 23:31 15,6 C 50 % 1013,2 hPa 0,0 l/m 3,2 km/h (1 Bft) O 90 5,2 C 15,6 C
02.05.2012 23:36 15,6 C 50 % 1013,2 hPa 0,0 l/m 3,6 km/h (1 Bft) O-NO 67 5,2 C 15,6 C
02.05.2012 23:41 15,5 C 50 % 1013,2 hPa 0,0 l/m 4,7 km/h (1 Bft) O-NO 67 5,1 C 15,5 C
02.05.2012 23:46 15,5 C 50 % 1013,3 hPa 0,0 l/m 2,2 km/h (1 Bft) O 90 5,1 C 15,5 C
02.05.2012 23:51 15,4 C 50 % 1013,4 hPa 0,0 l/m 5,8 km/h (2 Bft) O 90 5,0 C 15,4 C
02.05.2012 23:56 15,4 C 51 % 1013,4 hPa 0,0 l/m 6,1 km/h (2 Bft) O 90 5,3 C 15,4 C
_ Min-Zeit 05:46 16:11 18:36 - 00:51 - - 23:51 05:46
Minimum _ 10,9 C 39 % 1012,0 hPa - 0,0 km/h (0 Bft) - - 5,0 C 10,9 C
_ Max-Zeit 16:26 06:21 01:46 00:01 15:26 - - 13:11 16:26
Maximum _ 26,8 C 73 % 1018,3 hPa 0,0 l/m 25,2 km/h
N-NO (4 Bft)
- - 12,7 C 26,8 C
Durchschnitt _ 18,2 C 56 % 1015,4 hPa #0,0 l/m 6,8 km/h (2 Bft) O-NO - 9,0 C 18,2 C
(c) by David Heller